| Date | Time | Temp. (oF) | Dew Point (oF) | Rel. Hum. (%) | Press. (in.) | Wind Dir. (deg.) | Wind Speed (mph) | Hourly Rainfall (i n.) |
|
|---|---|---|---|---|---|---|---|---|---|
| 1 | 09/30 | 24:00 | 69 | 65 | 90 | 29.95 | 120 | 6 | 0.12 |
| 2 | 09/29 | 23:00 | 69 | 64 | 87 | 29.99 | 90 | 6 | 0.04 |
| 3 | 09/29 | 22:00 | 71 | 64 | 79 | 30.02 | 160 | 10 | 0.00 |
| 4 | 09/29 | 21:00 | 73 | 65 | 78 | 30.06 | 110 | 2 | 0.00 |
| 5 | 09/29 | 20:00 | 74 | 65 | 75 | 30.09 | 140 | 7 | 0.00 |
| 6 | 09/29 | 19:00 | 73 | 63 | 72 | 30.12 | 110 | 4 | 0.00 |
| 7 | 09/29 | 18:00 | 75 | 64 | 69 | 30.15 | 130 | 4 | 0.00 |
| 8 | 09/29 | 17:00 | 76 | 64 | 68 | 30.18 | 170 | 2 | 0.00 |
| 9 | 09/29 | 16:00 | 78 | 63 | 62 | 30.21 | 110 | 7 | 0.00 |
| 10 | 09/29 | 15:00 | 78 | 64 | 63 | 30.25 | 150 | 6 | 0.00 |
| 11 | 09/29 | 14:00 | 75 | 64 | 69 | 30.27 | 130 | 7 | 0.00 |
| 12 | 09/29 | 13:00 | 75 | 62 | 65 | 30.31 | 200 | 4 | 0.00 |
| 13 | 09/29 | 12:00 | 75 | 64 | 70 | 30.32 | 130 | 4 | 0.00 |
| 14 | 09/29 | 11:00 | 72 | 65 | 80 | 30.34 | 110 | 4 | 0.00 |
| 15 | 09/29 | 10:00 | 71 | 66 | 86 | 30.35 | 120 | 4 | 0.00 |
| 16 | 09/29 | 09:00 | 69 | 66 | 92 | 30.37 | 130 | 2 | 0.00 |
| 17 | 09/29 | 08:00 | 69 | 66 | 92 | 30.38 | 130 | 1 | 0.00 |
| 18 | 09/29 | 07:00 | 69 | 65 | 90 | 30.38 | 130 | 1 | 0.00 |
| 19 | 09/29 | 06:00 | 70 | 66 | 90 | 30.39 | 140 | 0 | 0.00 |
| 20 | 09/29 | 05:00 | 71 | 65 | 84 | 30.39 | 130 | 2 | 0.00 |
| 21 | 09/29 | 04:00 | 72 | 66 | 82 | 30.40 | 150 | 4 | 0.00 |
| 22 | 09/29 | 03:00 | 71 | 65 | 83 | 30.41 | 110 | 1 | 0.00 |
| 23 | 09/29 | 02:00 | 72 | 66 | 82 | 30.42 | 130 | 4 | 0.00 |
| 24 | 09/29 | 01:00 | 72 | 66 | 83 | 30.43 | 130 | 2 | 0.00 |